createdAt,value
2024-04-15T00:03:41.644Z,2.10
2024-04-15T00:06:09.840Z,1.90
2024-04-15T00:08:38.146Z,2.20
2024-04-15T00:11:06.755Z,2.20
2024-04-15T00:13:34.821Z,1.90
2024-04-15T00:16:02.741Z,2.00
2024-04-15T00:18:30.754Z,2.00
2024-04-15T00:21:00.232Z,1.90
2024-04-15T00:23:28.150Z,2.00
2024-04-15T00:25:59.781Z,1.90
2024-04-15T00:28:29.215Z,2.10
2024-04-15T00:30:57.297Z,2.20
2024-04-15T00:33:25.335Z,2.10
2024-04-15T00:35:53.243Z,2.00
2024-04-15T00:38:21.096Z,1.60
2024-04-15T00:40:49.171Z,1.70
2024-04-15T00:43:17.162Z,2.00
2024-04-15T00:45:45.356Z,1.90
2024-04-15T00:48:17.787Z,2.10
2024-04-15T00:50:47.924Z,2.00
2024-04-15T00:53:17.556Z,2.00
2024-04-15T00:55:50.260Z,1.60
2024-04-15T00:58:20.800Z,2.00
2024-04-15T01:00:49.033Z,2.00
2024-04-15T01:03:17.919Z,2.10
2024-04-15T01:05:46.937Z,2.20
2024-04-15T01:08:15.983Z,1.90
2024-04-15T01:10:54.893Z,2.00
2024-04-15T01:13:28.832Z,2.40
2024-04-15T01:15:58.147Z,1.80
2024-04-15T01:18:26.545Z,1.80
2024-04-15T01:20:59.566Z,2.00
2024-04-15T01:23:31.819Z,2.10
2024-04-15T01:26:01.195Z,1.60
2024-04-15T01:28:29.208Z,2.00
2024-04-15T01:30:57.220Z,2.00
2024-04-15T01:33:25.263Z,1.90
2024-04-15T01:35:53.060Z,2.20
2024-04-15T01:38:20.922Z,2.10
2024-04-15T01:40:48.992Z,1.90
2024-04-15T01:43:16.847Z,2.00
2024-04-15T01:45:45.325Z,1.80
2024-04-15T01:48:13.449Z,2.50
2024-04-15T01:50:41.569Z,2.00
2024-04-15T01:53:09.787Z,1.90
2024-04-15T01:55:39.278Z,2.10
2024-04-15T01:58:07.133Z,1.80
2024-04-15T02:00:35.389Z,1.90
2024-04-15T02:03:03.825Z,1.90
2024-04-15T02:05:32.080Z,2.00
2024-04-15T02:07:59.962Z,2.00
2024-04-15T02:10:28.300Z,2.00
2024-04-15T02:12:56.252Z,2.10
2024-04-15T02:15:24.678Z,1.70
2024-04-15T02:17:52.780Z,2.30
2024-04-15T02:20:20.783Z,2.10
2024-04-15T02:22:48.919Z,1.90
2024-04-15T02:25:17.051Z,1.70
2024-04-15T02:27:45.639Z,2.40
2024-04-15T02:30:14.223Z,2.40
2024-04-15T02:32:42.182Z,2.20
2024-04-15T02:35:10.092Z,2.10
2024-04-15T02:37:38.017Z,2.10
2024-04-15T02:40:06.445Z,1.90
2024-04-15T02:42:34.540Z,1.80
2024-04-15T02:45:02.413Z,2.00
2024-04-15T02:47:30.752Z,1.90
2024-04-15T02:49:58.764Z,2.00
2024-04-15T02:52:26.615Z,1.80
2024-04-15T02:54:54.519Z,1.70
2024-04-15T02:57:22.427Z,1.90
2024-04-15T02:59:50.312Z,2.10
2024-04-15T03:02:18.324Z,2.00
2024-04-15T03:04:46.764Z,2.40
2024-04-15T03:07:14.621Z,2.10
2024-04-15T03:09:42.603Z,1.70
2024-04-15T03:12:11.198Z,1.80
2024-04-15T03:14:38.994Z,1.80
2024-04-15T03:17:06.919Z,2.20
2024-04-15T03:19:34.849Z,1.70
2024-04-15T03:22:03.496Z,2.30
2024-04-15T03:24:31.577Z,1.80
2024-04-15T03:27:00.174Z,1.90
2024-04-15T03:29:28.288Z,1.70
2024-04-15T03:31:56.219Z,2.10
2024-04-15T03:34:24.122Z,2.20
2024-04-15T03:36:51.949Z,1.90
2024-04-15T03:39:19.960Z,2.10
2024-04-15T03:41:47.818Z,1.70
2024-04-15T03:44:15.743Z,1.90
2024-04-15T03:46:43.656Z,1.50
2024-04-15T03:49:11.691Z,2.10
2024-04-15T03:51:39.770Z,1.70
2024-04-15T03:54:07.724Z,2.10
2024-04-15T03:56:35.596Z,1.80
2024-04-15T03:59:03.554Z,1.90
2024-04-15T04:01:31.529Z,1.90
2024-04-15T04:03:59.686Z,1.80
2024-04-15T04:06:27.769Z,2.20
2024-04-15T04:08:55.775Z,1.90
2024-04-15T04:11:23.934Z,1.80
2024-04-15T04:13:51.811Z,2.50
2024-04-15T04:16:19.838Z,2.10
2024-04-15T04:18:48.268Z,2.00
2024-04-15T04:21:16.279Z,2.00
2024-04-15T04:23:44.322Z,2.10
2024-04-15T04:26:12.304Z,1.90
2024-04-15T04:28:40.243Z,1.70
2024-04-15T04:31:08.278Z,1.80
2024-04-15T04:33:36.124Z,1.80
2024-04-15T04:36:04.284Z,1.80
2024-04-15T04:38:32.781Z,2.10
2024-04-15T04:41:01.767Z,1.90
2024-04-15T04:43:29.737Z,1.80
2024-04-15T04:45:57.740Z,2.30
2024-04-15T04:48:26.007Z,1.90
2024-04-15T04:50:53.867Z,2.00
2024-04-15T04:53:21.928Z,2.10
2024-04-15T04:55:49.778Z,1.90
2024-04-15T04:58:17.629Z,2.30
2024-04-15T05:00:45.684Z,2.90
2024-04-15T05:03:13.778Z,2.10
2024-04-15T05:05:42.109Z,2.50
2024-04-15T05:08:10.110Z,2.50
2024-04-15T05:10:38.021Z,2.10
2024-04-15T05:13:06.085Z,2.30
2024-04-15T05:15:33.985Z,2.50
2024-04-15T05:18:01.948Z,2.50
2024-04-15T05:20:29.896Z,2.70
2024-04-15T05:22:57.741Z,2.60
2024-04-15T05:25:25.702Z,2.70
2024-04-15T05:27:53.715Z,2.70
2024-04-15T05:30:22.067Z,2.60
2024-04-15T05:32:49.908Z,2.40
2024-04-15T05:35:18.003Z,2.60
2024-04-15T05:37:45.776Z,2.50
2024-04-15T05:40:13.608Z,2.60
2024-04-15T05:42:41.570Z,2.60
2024-04-15T05:45:09.423Z,2.40
2024-04-15T05:47:37.594Z,3.00
2024-04-15T05:50:05.769Z,2.60
2024-04-15T05:52:33.734Z,2.60
2024-04-15T05:55:01.687Z,2.80
2024-04-15T05:57:29.704Z,2.30
2024-04-15T05:59:57.569Z,2.80
2024-04-15T06:02:25.528Z,2.30
2024-04-15T06:04:53.827Z,2.60
2024-04-15T06:07:22.200Z,2.60
2024-04-15T06:09:50.114Z,2.60
2024-04-15T06:12:18.586Z,2.70
2024-04-15T06:14:46.481Z,2.70
2024-04-15T06:17:14.383Z,2.60
2024-04-15T06:19:42.668Z,3.10
2024-04-15T06:22:10.587Z,4.00
2024-04-15T06:24:38.583Z,3.10
2024-04-15T06:27:06.450Z,3.60
2024-04-15T06:29:34.339Z,3.30
2024-04-15T06:32:02.191Z,3.20
2024-04-15T06:34:30.805Z,3.70
2024-04-15T06:36:59.244Z,3.20
2024-04-15T06:39:28.019Z,3.20
2024-04-15T06:41:56.225Z,3.30
2024-04-15T06:44:24.188Z,3.70
2024-04-15T06:46:52.156Z,3.30
2024-04-15T06:49:20.281Z,3.40
2024-04-15T06:51:48.256Z,3.70
2024-04-15T06:54:16.630Z,3.70
2024-04-15T06:56:44.598Z,4.00
2024-04-15T06:59:12.455Z,3.70
2024-04-15T07:01:41.159Z,3.40
2024-04-15T07:04:10.335Z,3.50
2024-04-15T07:06:39.075Z,4.20
2024-04-15T07:09:07.574Z,3.10
2024-04-15T07:11:35.744Z,3.70
2024-04-15T07:14:03.644Z,3.40
2024-04-15T07:16:31.558Z,3.10
2024-04-15T07:19:00.170Z,3.40
2024-04-15T07:21:28.109Z,3.30
2024-04-15T07:23:56.867Z,3.10
2024-04-15T07:26:25.424Z,3.00
2024-04-15T07:28:53.788Z,2.80
2024-04-15T07:31:21.714Z,3.10
2024-04-15T07:33:51.676Z,3.00
2024-04-15T07:36:21.038Z,2.40
2024-04-15T07:38:49.243Z,2.60
2024-04-15T07:41:17.356Z,2.20
2024-04-15T07:43:47.011Z,2.00
2024-04-15T07:46:15.451Z,2.20
2024-04-15T07:48:43.903Z,2.00
2024-04-15T07:51:11.865Z,2.10
2024-04-15T07:53:41.584Z,2.00
2024-04-15T07:56:10.529Z,1.90
2024-04-15T07:58:38.466Z,1.80
2024-04-15T08:01:07.063Z,1.70
2024-04-15T08:03:36.300Z,1.60
2024-04-15T08:06:04.816Z,1.70
2024-04-15T08:08:32.650Z,1.50
2024-04-15T08:11:00.531Z,1.60
2024-04-15T08:13:29.021Z,1.60
2024-04-15T08:15:57.389Z,1.70
2024-04-15T08:18:25.289Z,1.40
2024-04-15T08:20:55.034Z,1.50
2024-04-15T08:23:22.977Z,1.50
2024-04-15T08:25:57.474Z,1.50
2024-04-15T08:28:25.690Z,1.60
2024-04-15T08:30:53.507Z,1.50
2024-04-15T08:33:21.450Z,1.50
2024-04-15T08:35:49.992Z,1.50
2024-04-15T08:38:18.455Z,1.60
2024-04-15T08:40:53.603Z,1.30
2024-04-15T08:43:26.513Z,1.70
2024-04-15T08:46:02.429Z,1.50
2024-04-15T08:48:30.452Z,1.50
2024-04-15T08:51:00.238Z,1.80
2024-04-15T08:53:28.696Z,1.80
2024-04-15T08:55:58.044Z,1.60
2024-04-15T08:58:26.296Z,1.50
2024-04-15T09:00:55.566Z,1.60
2024-04-15T09:03:25.579Z,1.60
2024-04-15T09:05:55.540Z,1.40
2024-04-15T09:08:23.741Z,1.30
2024-04-15T09:10:51.742Z,1.70
2024-04-15T09:13:20.495Z,1.50
2024-04-15T09:15:50.403Z,1.50
2024-04-15T09:18:19.123Z,1.50
2024-04-15T09:20:57.965Z,1.60
2024-04-15T09:23:30.184Z,1.30
2024-04-15T09:25:58.591Z,1.30
2024-04-15T09:28:27.095Z,1.00
2024-04-15T09:30:56.102Z,0.80
2024-04-15T09:33:27.353Z,1.20
2024-04-15T09:35:55.108Z,1.20
2024-04-15T09:38:24.973Z,1.10
2024-04-15T09:40:53.937Z,1.20
2024-04-15T09:43:24.561Z,1.00
2024-04-15T09:45:54.806Z,1.10
2024-04-15T09:48:25.678Z,1.30
2024-04-15T09:51:04.832Z,1.30
2024-04-15T09:53:38.797Z,1.60
2024-04-15T09:56:13.926Z,1.20
2024-04-15T09:58:49.498Z,1.50
2024-04-15T10:01:22.936Z,1.30
2024-04-15T10:03:54.098Z,1.30
2024-04-15T10:06:46.743Z,1.20
2024-04-15T10:09:19.664Z,0.90
2024-04-15T10:11:50.522Z,1.10
2024-04-15T10:14:20.859Z,1.10
2024-04-15T10:16:50.095Z,1.30
2024-04-15T10:19:34.033Z,1.20
2024-04-15T10:22:04.019Z,1.30
2024-04-15T10:24:32.423Z,1.50
2024-04-15T10:27:04.178Z,1.40
2024-04-15T10:29:32.414Z,1.30
2024-04-15T10:32:00.947Z,1.70
2024-04-15T10:34:29.199Z,1.30
2024-04-15T10:36:57.815Z,1.10
2024-04-15T10:39:30.157Z,1.20
2024-04-15T10:41:58.213Z,1.40
2024-04-15T10:44:26.892Z,1.40
2024-04-15T10:46:55.069Z,1.60
2024-04-15T10:49:23.496Z,1.30
2024-04-15T10:51:52.338Z,1.20
2024-04-15T10:54:21.533Z,1.30
2024-04-15T10:56:49.930Z,1.20
2024-04-15T10:59:18.525Z,1.30
2024-04-15T11:01:47.375Z,0.90
2024-04-15T11:04:17.004Z,1.60
2024-04-15T11:06:48.578Z,1.50
2024-04-15T11:09:16.612Z,1.20
2024-04-15T11:11:44.380Z,1.40
2024-04-15T11:14:12.804Z,1.30
2024-04-15T11:16:45.706Z,1.40
2024-04-15T11:19:14.145Z,1.30
2024-04-15T11:21:43.523Z,1.60
2024-04-15T11:24:12.217Z,1.30
2024-04-15T11:26:43.101Z,1.30
2024-04-15T11:29:13.712Z,1.80
2024-04-15T11:31:41.718Z,1.30
2024-04-15T11:34:10.790Z,1.50
2024-04-15T11:36:38.810Z,1.40
2024-04-15T11:39:07.124Z,1.60
2024-04-15T11:41:35.626Z,1.40
2024-04-15T11:44:04.299Z,1.40
2024-04-15T11:46:32.843Z,1.60
2024-04-15T11:49:01.157Z,1.50
2024-04-15T11:51:30.243Z,1.70
2024-04-15T11:53:58.125Z,1.90
2024-04-15T11:56:26.134Z,2.10
2024-04-15T11:58:54.700Z,2.00
2024-04-15T12:01:22.613Z,1.80
2024-04-15T12:03:50.700Z,1.80
2024-04-15T12:06:19.894Z,2.10
2024-04-15T12:08:48.445Z,1.80
2024-04-15T12:11:16.895Z,1.90
2024-04-15T12:13:45.260Z,2.00
2024-04-15T12:16:13.198Z,2.20
2024-04-15T12:18:41.259Z,2.20
2024-04-15T12:21:09.142Z,2.40
2024-04-15T12:23:37.178Z,2.40
2024-04-15T12:26:05.419Z,1.90
2024-04-15T12:28:33.665Z,2.40
2024-04-15T12:31:01.618Z,2.30
2024-04-15T12:33:31.339Z,2.40
2024-04-15T12:36:00.831Z,2.30
2024-04-15T12:38:28.799Z,2.20
2024-04-15T12:40:56.605Z,2.30
2024-04-15T12:43:24.486Z,2.30
2024-04-15T12:45:53.040Z,2.60
2024-04-15T12:48:21.133Z,2.50
2024-04-15T12:50:49.745Z,2.50
2024-04-15T12:53:17.665Z,2.40
2024-04-15T12:55:46.179Z,2.40
2024-04-15T12:58:15.093Z,2.50
2024-04-15T13:00:43.379Z,2.70
2024-04-15T13:03:12.029Z,2.40
2024-04-15T13:05:40.281Z,2.30
2024-04-15T13:08:10.056Z,2.20
2024-04-15T13:10:38.478Z,2.20
2024-04-15T13:13:07.594Z,2.00
2024-04-15T13:15:35.531Z,2.50
2024-04-15T13:18:04.946Z,2.40
2024-04-15T13:20:33.757Z,2.30
2024-04-15T13:23:03.117Z,2.20
2024-04-15T13:25:31.692Z,2.20
2024-04-15T13:28:00.856Z,2.50
2024-04-15T13:30:29.837Z,2.30
2024-04-15T13:32:58.297Z,2.50
2024-04-15T13:35:26.800Z,2.30
2024-04-15T13:37:55.156Z,2.40
2024-04-15T13:40:23.337Z,2.80
2024-04-15T13:42:51.428Z,3.00
2024-04-15T13:45:19.362Z,3.30
2024-04-15T13:47:47.287Z,2.90
2024-04-15T13:50:15.373Z,2.70
2024-04-15T13:52:43.169Z,2.70
2024-04-15T13:55:11.407Z,3.00
2024-04-15T13:57:39.591Z,2.90
2024-04-15T14:00:09.811Z,3.10
2024-04-15T14:02:37.685Z,2.80
2024-04-15T14:05:06.319Z,3.20
2024-04-15T14:07:35.215Z,3.70
2024-04-15T14:10:03.653Z,3.10
2024-04-15T14:12:32.696Z,3.20
2024-04-15T14:15:02.344Z,2.80
2024-04-15T14:17:30.364Z,3.10
2024-04-15T14:19:59.955Z,2.70
2024-04-15T14:22:27.792Z,2.60
2024-04-15T14:24:56.165Z,2.40
2024-04-15T14:27:24.283Z,2.10
2024-04-15T14:29:52.395Z,2.20
2024-04-15T14:32:20.329Z,2.50
2024-04-15T14:34:51.913Z,2.90
2024-04-15T14:37:21.421Z,2.50
2024-04-15T14:39:52.974Z,2.80
2024-04-15T14:42:27.421Z,3.00
2024-04-15T14:44:55.402Z,2.80
2024-04-15T14:47:23.804Z,2.80
2024-04-15T14:49:52.217Z,3.20
2024-04-15T14:52:21.090Z,3.10
2024-04-15T14:54:48.995Z,2.20
2024-04-15T14:57:19.203Z,1.80
2024-04-15T14:59:48.417Z,2.20
2024-04-15T15:02:17.858Z,2.20
2024-04-15T15:04:45.949Z,2.10
2024-04-15T15:07:13.966Z,2.30
2024-04-15T15:09:41.850Z,1.90
2024-04-15T15:12:09.863Z,2.10
2024-04-15T15:14:37.994Z,1.80
2024-04-15T15:17:05.996Z,2.00
2024-04-15T15:19:34.625Z,1.80
2024-04-15T15:22:04.209Z,1.90
2024-04-15T15:24:33.770Z,1.70
2024-04-15T15:27:02.906Z,2.20
2024-04-15T15:29:31.896Z,1.70
2024-04-15T15:32:00.125Z,2.10
2024-04-15T15:34:29.327Z,2.00
2024-04-15T15:36:57.531Z,2.40
2024-04-15T15:39:25.772Z,1.80
2024-04-15T15:41:53.703Z,2.00
2024-04-15T15:44:22.420Z,1.90
2024-04-15T15:46:51.074Z,1.80
2024-04-15T15:49:20.224Z,1.80
2024-04-15T15:51:48.118Z,2.00
2024-04-15T15:54:16.595Z,2.00
2024-04-15T15:56:45.890Z,2.00
2024-04-15T15:59:15.224Z,2.70
2024-04-15T16:01:43.131Z,2.40
2024-04-15T16:04:11.969Z,1.90
2024-04-15T16:06:40.419Z,2.10
2024-04-15T16:09:08.873Z,2.10
2024-04-15T16:11:42.358Z,1.80
2024-04-15T16:14:14.523Z,1.90
2024-04-15T16:16:42.586Z,1.90
2024-04-15T16:19:11.439Z,2.00
2024-04-15T16:21:39.415Z,2.30
2024-04-15T16:24:08.342Z,1.80
2024-04-15T16:26:36.521Z,2.10
2024-04-15T16:29:05.673Z,2.00
2024-04-15T16:31:33.973Z,2.00
2024-04-15T16:34:02.632Z,1.80
2024-04-15T16:36:30.796Z,1.90
2024-04-15T16:38:58.845Z,2.30
2024-04-15T16:41:27.391Z,1.70
2024-04-15T16:43:56.038Z,2.10
2024-04-15T16:46:24.841Z,2.20
2024-04-15T16:48:53.843Z,2.30
2024-04-15T16:51:21.900Z,2.90
2024-04-15T16:53:50.079Z,2.10
2024-04-15T16:56:18.715Z,2.30
2024-04-15T16:58:47.477Z,1.80
2024-04-15T17:01:15.441Z,1.70
2024-04-15T17:03:43.468Z,3.10
2024-04-15T17:06:12.572Z,2.00
2024-04-15T17:08:40.543Z,2.10
2024-04-15T17:11:11.768Z,1.80
2024-04-15T17:13:39.924Z,2.00
2024-04-15T17:16:10.217Z,1.80
2024-04-15T17:18:40.447Z,2.00
2024-04-15T17:21:08.957Z,1.90
2024-04-15T17:23:39.639Z,1.80
2024-04-15T17:26:08.499Z,1.90
2024-04-15T17:28:37.491Z,1.80
2024-04-15T17:31:05.502Z,2.20
2024-04-15T17:33:34.579Z,2.10
2024-04-15T17:36:02.640Z,1.70
2024-04-15T17:38:30.509Z,1.90
2024-04-15T17:40:59.122Z,2.00
2024-04-15T17:43:27.494Z,2.00
2024-04-15T17:45:56.778Z,1.90
2024-04-15T17:48:24.773Z,2.20
2024-04-15T17:50:52.652Z,2.00
2024-04-15T17:53:20.614Z,2.20
2024-04-15T17:55:48.672Z,2.20
2024-04-15T17:58:16.536Z,2.00
2024-04-15T18:00:44.357Z,1.80
2024-04-15T18:03:12.370Z,2.50
2024-04-15T18:05:41.037Z,1.80
2024-04-15T18:08:09.687Z,2.20
2024-04-15T18:10:37.622Z,2.00
2024-04-15T18:13:05.607Z,2.10
2024-04-15T18:15:34.828Z,1.80
2024-04-15T18:18:02.884Z,2.50
2024-04-15T18:20:30.779Z,2.50
2024-04-15T18:22:58.767Z,2.10
2024-04-15T18:25:26.876Z,2.20
2024-04-15T18:27:54.984Z,2.10
2024-04-15T18:30:22.855Z,1.90
2024-04-15T18:32:50.993Z,2.20
2024-04-15T18:35:19.104Z,2.40
2024-04-15T18:37:47.329Z,2.10
2024-04-15T18:40:15.821Z,2.30
2024-04-15T18:42:44.895Z,2.50
2024-04-15T18:45:12.711Z,2.40
2024-04-15T18:47:41.050Z,2.50
2024-04-15T18:50:09.142Z,2.70
2024-04-15T18:52:37.537Z,2.10
2024-04-15T18:55:06.038Z,2.70
2024-04-15T18:57:34.003Z,2.80
2024-04-15T19:00:02.167Z,2.60
2024-04-15T19:02:30.940Z,2.40
2024-04-15T19:04:58.876Z,2.10
2024-04-15T19:07:27.771Z,2.60
2024-04-15T19:09:56.028Z,3.10
2024-04-15T19:12:24.060Z,3.00
2024-04-15T19:15:05.294Z,2.80
2024-04-15T19:17:39.814Z,2.40
2024-04-15T19:20:07.933Z,2.50
2024-04-15T19:22:36.437Z,2.70
2024-04-15T19:25:05.054Z,2.80
2024-04-15T19:27:34.756Z,2.80
2024-04-15T19:30:04.040Z,3.00
2024-04-15T19:32:35.609Z,2.90
2024-04-15T19:35:05.109Z,2.60
2024-04-15T19:37:33.989Z,2.80
2024-04-15T19:40:02.479Z,2.80
2024-04-15T19:42:30.915Z,2.60
2024-04-15T19:44:58.783Z,3.10
2024-04-15T19:47:26.712Z,3.30
2024-04-15T19:49:56.345Z,2.60
2024-04-15T19:52:24.311Z,2.70
2024-04-15T19:54:52.240Z,3.10
2024-04-15T19:57:20.062Z,3.00
2024-04-15T19:59:48.481Z,3.10
2024-04-15T20:02:17.892Z,3.10
2024-04-15T20:04:45.823Z,3.40
2024-04-15T20:07:14.077Z,3.10
2024-04-15T20:09:42.204Z,3.10
2024-04-15T20:12:10.417Z,3.90
2024-04-15T20:14:38.382Z,3.10
2024-04-15T20:17:08.181Z,2.70
2024-04-15T20:19:36.854Z,2.60
2024-04-15T20:22:05.078Z,2.70
2024-04-15T20:24:33.086Z,3.30
2024-04-15T20:27:01.057Z,3.20
2024-04-15T20:29:29.124Z,3.40
2024-04-15T20:31:57.535Z,2.90
2024-04-15T20:34:25.651Z,3.40
2024-04-15T20:36:55.108Z,3.40
2024-04-15T20:39:23.237Z,3.20
2024-04-15T20:41:51.538Z,3.30
2024-04-15T20:44:19.650Z,3.90
2024-04-15T20:46:47.551Z,3.60
2024-04-15T20:49:15.559Z,3.50
2024-04-15T20:51:43.587Z,3.90
2024-04-15T20:54:11.562Z,4.10
2024-04-15T20:56:39.517Z,4.50
2024-04-15T20:59:07.583Z,4.90
2024-04-15T21:01:36.571Z,4.60
2024-04-15T21:04:11.115Z,4.40
2024-04-15T21:06:46.808Z,4.70
2024-04-15T21:09:14.927Z,4.90
2024-04-15T21:11:43.460Z,4.50
2024-04-15T21:14:12.013Z,4.50
2024-04-15T21:16:40.494Z,4.70
2024-04-15T21:19:09.044Z,4.90
2024-04-15T21:21:37.483Z,4.70
2024-04-15T21:24:06.282Z,5.10
2024-04-15T21:26:35.405Z,5.50
2024-04-15T21:29:03.436Z,5.00
2024-04-15T21:31:33.218Z,5.60
2024-04-15T21:34:02.850Z,4.90
2024-04-15T21:36:31.719Z,4.80
2024-04-15T21:38:59.785Z,5.30
2024-04-15T21:41:29.253Z,5.70
2024-04-15T21:43:57.395Z,5.90
2024-04-15T21:46:25.548Z,5.50
2024-04-15T21:48:53.406Z,5.70
2024-04-15T21:51:21.355Z,5.30
2024-04-15T21:53:49.219Z,5.70
2024-04-15T21:56:18.172Z,5.30
2024-04-15T21:58:46.118Z,5.70
2024-04-15T22:01:14.405Z,5.80
2024-04-15T22:03:42.316Z,5.20
2024-04-15T22:06:10.405Z,4.70
2024-04-15T22:08:38.527Z,4.90
2024-04-15T22:11:06.884Z,4.60
2024-04-15T22:13:35.446Z,5.00
2024-04-15T22:16:05.239Z,5.20
2024-04-15T22:18:33.241Z,3.80
2024-04-15T22:21:01.164Z,3.70
2024-04-15T22:23:29.149Z,3.40
2024-04-15T22:25:57.828Z,3.50
2024-04-15T22:28:26.813Z,3.50
2024-04-15T22:30:55.942Z,3.60
2024-04-15T22:33:24.040Z,3.70
2024-04-15T22:35:53.409Z,3.60
2024-04-15T22:38:21.110Z,3.70
2024-04-15T22:40:49.008Z,3.10
2024-04-15T22:43:18.632Z,3.30
2024-04-15T22:45:46.853Z,3.60
2024-04-15T22:48:15.857Z,3.40
2024-04-15T22:50:43.770Z,3.90
2024-04-15T22:53:12.214Z,4.00
2024-04-15T22:55:40.769Z,4.30
2024-04-15T22:58:09.235Z,5.00
2024-04-15T23:00:37.799Z,5.10
2024-04-15T23:03:05.647Z,5.50
2024-04-15T23:05:35.330Z,6.40
2024-04-15T23:08:04.397Z,6.80
2024-04-15T23:10:32.895Z,6.90
2024-04-15T23:13:00.778Z,7.60
2024-04-15T23:15:29.335Z,7.30
2024-04-15T23:17:57.673Z,6.80
2024-04-15T23:20:25.779Z,7.70
2024-04-15T23:22:53.650Z,7.90
2024-04-15T23:25:22.188Z,7.90
2024-04-15T23:27:50.444Z,8.70
2024-04-15T23:30:18.318Z,8.00
2024-04-15T23:32:46.166Z,9.10
2024-04-15T23:35:15.113Z,8.80
2024-04-15T23:37:43.675Z,8.60
2024-04-15T23:40:12.082Z,9.50
2024-04-15T23:42:41.034Z,8.80
2024-04-15T23:45:08.805Z,7.90
2024-04-15T23:47:37.351Z,6.60
2024-04-15T23:50:06.415Z,5.90
2024-04-15T23:52:34.320Z,4.70
2024-04-15T23:55:02.470Z,4.30
2024-04-15T23:57:30.797Z,4.10
2024-04-15T23:59:58.699Z,3.60
